Queen Of Nanaimo — VCNX — position and weather

sailwx.info

Track history (hours):
 
Tides and Currents Weather Stations Pressure Air Temp Water Temp Dewpoint Dewpoint Depression Visibility Wind Speed Wind Dir Waves Ship Positions

Queen Of Nanaimo

Last reported at 2014-Nov-01 01:33 UTC. Time now 2014-Nov-01 01:42 UTC.
Position N 49°00' W 123°08'.

Length 130 m; draft 4 m.

Type: Ship. MMSI: 316001254.

Date/timePositionNaut miles runAvg speedWind from/ knotsBaromVisibWave heightAir tempDewpointWater temp
2014-Nov-01 01:33N 49°00' W 123°08'1110.6
2014-Nov-01 00:33N 48°53' W 123°19'2 1.9
2014-Oct-31 23:27N 48°51' W 123°20'3 3.3
2014-Oct-31 22:30N 48°50' W 123°25'1 0.3
2014-Oct-31 20:05N 48°51' W 123°26'5 9.2
2014-Oct-31 19:31N 48°48' W 123°19'4 3.6
2014-Oct-31 18:31N 48°52' W 123°19'8 8.8
2014-Oct-31 17:34N 48°58' W 123°11'3 3.0
2014-Oct-31 16:34N 49°00' W 123°08'1010.2
2014-Oct-31 15:33N 48°53' W 123°18'3 3.0
2014-Oct-31 14:26N 48°50' W 123°20'4 0.4
2014-Oct-31 05:24N 48°51' W 123°26'4 5.3
2014-Oct-31 04:34N 48°49' W 123°20'4 4.0
2014-Oct-31 03:33N 48°53' W 123°18'9 9.1
2014-Oct-31 02:33N 48°59' W 123°09'1 1.3
2014-Oct-31 01:33N 49°00' W 123°08'1110.7
2014-Oct-31 00:33N 48°53' W 123°19'2 1.9
2014-Oct-30 23:33N 48°51' W 123°20'4 1.2
2014-Oct-30 20:03N 48°51' W 123°26'510.8
2014-Oct-30 19:33N 48°48' W 123°19'4 3.7
2014-Oct-30 18:31N 48°52' W 123°21'8 8.7
2014-Oct-30 17:33N 48°58' W 123°12'4 4.0
2014-Oct-30 16:33N 49°00' W 123°08'1110.7
2014-Oct-30 15:33N 48°53' W 123°19'3 2.5
2014-Oct-30 14:33N 48°50' W 123°20'3 0.4
2014-Oct-30 05:13N 48°50' W 123°25'5 7.2
2014-Oct-30 04:33N 48°48' W 123°19'5 4.9
2014-Oct-30 03:33N 48°53' W 123°19'1010.3
2014-Oct-30 02:33N 48°60' W 123°08'0 0.3
2014-Oct-30 01:33N 49°00' W 123°08'1110.5
2014-Oct-30 00:33N 48°53' W 123°19'2 1.8
2014-Oct-29 23:27N 48°51' W 123°20'3 3.4
2014-Oct-29 22:32N 48°50' W 123°25'4 1.2
2014-Oct-29 19:33N 48°48' W 123°20'3 2.8
2014-Oct-29 18:33N 48°51' W 123°20'7 7.3
2014-Oct-29 17:33N 48°57' W 123°13'5 5.3
2014-Oct-29 16:33N 49°00' W 123°08'1010.3
2014-Oct-29 15:33N 48°53' W 123°18'2 2.5
2014-Oct-29 14:33N 48°51' W 123°20'3 2.9
2014-Oct-29 13:33N 48°49' W 123°24'3 2.8
2014-Oct-29 12:33N 48°51' W 123°27'0 0.0
2014-Oct-29 11:33N 48°51' W 123°27'0 0.0
2014-Oct-29 10:33N 48°51' W 123°27'0 0.0
2014-Oct-29 09:33N 48°51' W 123°27'0 0.0
2014-Oct-29 08:33N 48°51' W 123°27'0 0.0
2014-Oct-29 07:33N 48°51' W 123°27'0 0.0
2014-Oct-29 06:33N 48°51' W 123°27'0 0.0
2014-Oct-29 05:33N 48°51' W 123°27'6 6.0
2014-Oct-29 04:33N 48°48' W 123°19'4 4.3
2014-Oct-29 03:33N 48°52' W 123°18'9 8.6
2014-Oct-29 02:33N 48°59' W 123°10'2 2.1
2014-Oct-29 01:33N 49°00' W 123°08'1110.6
2014-Oct-29 00:33N 48°53' W 123°19'2 2.0
2014-Oct-28 23:34N 48°51' W 123°20'3 3.5
2014-Oct-28 22:33N 48°49' W 123°24'2 2.2
2014-Oct-28 21:31N 48°51' W 123°27'6 3.0
2014-Oct-28 19:33N 48°48' W 123°19'3 3.1
2014-Oct-28 18:30N 48°51' W 123°21'7 7.8
2014-Oct-28 17:34N 48°57' W 123°14'5 5.2
2014-Oct-28 16:33N 49°00' W 123°08'9 9.4
2014-Oct-28 15:33N 48°53' W 123°17'3 2.9
2014-Oct-28 14:32N 48°51' W 123°20'3 0.3
2014-Oct-28 04:32N 48°48' W 123°19'4 4.0
2014-Oct-28 03:34N 48°52' W 123°19'10 9.5
2014-Oct-28 02:33N 48°59' W 123°10'2 1.6
2014-Oct-28 01:33N 49°00' W 123°08'1110.7
2014-Oct-28 00:33N 48°53' W 123°19'2 1.9
2014-Oct-27 23:32N 48°51' W 123°20'4 3.6
2014-Oct-27 22:31N 48°50' W 123°25'5 1.5
2014-Oct-27 19:32N 48°48' W 123°19'3 3.2
2014-Oct-27 18:33N 48°51' W 123°21'8 7.6
2014-Oct-27 17:34N 48°57' W 123°13'5 5.1
2014-Oct-27 16:33N 49°00' W 123°08'10 9.7
2014-Oct-27 15:33N 48°53' W 123°17'3 2.7
2014-Oct-27 14:33N 48°51' W 123°20'4 3.3
2014-Oct-27 13:26N 48°50' W 123°25'4 0.5
2014-Oct-27 05:34N 48°52' W 123°19'1111.4
2014-Oct-27 04:33N 49°00' W 123°08'1211.5
2014-Oct-27 03:34N 48°51' W 123°19'0 0.3
2014-Oct-27 02:34N 48°52' W 123°19'1111.2
2014-Oct-27 01:33N 49°00' W 123°08'7 6.6
2014-Oct-27 00:33N 48°55' W 123°14'6 6.1
2014-Oct-26 23:33N 48°51' W 123°21'3 1.1
2014-Oct-26 20:33N 48°48' W 123°19'3 2.9
2014-Oct-26 19:33N 48°51' W 123°20'7 7.0
2014-Oct-26 18:33N 48°56' W 123°14'6 5.7
2014-Oct-26 17:34N 49°00' W 123°08'10 9.8
2014-Oct-26 16:34N 48°53' W 123°17'3 2.6
2014-Oct-26 15:34N 48°51' W 123°20'3 3.4
2014-Oct-26 14:34N 48°49' W 123°24'3 3.1
2014-Oct-26 13:34N 48°51' W 123°27'0 0.0
2014-Oct-26 12:34N 48°51' W 123°27'0 0.0
2014-Oct-26 11:33N 48°51' W 123°27'0 0.0
2014-Oct-26 10:34N 48°51' W 123°27'0 0.0
2014-Oct-26 09:33N 48°51' W 123°27'0 0.0
2014-Oct-26 08:33N 48°51' W 123°27'0 0.0
2014-Oct-26 07:34N 48°51' W 123°27'0 0.0
2014-Oct-26 06:34N 48°51' W 123°27'4 4.2
2014-Oct-26 05:33N 48°51' W 123°20'3 3.2
2014-Oct-26 04:33N 48°53' W 123°17'9 9.5
2014-Oct-26 03:33N 49°00' W 123°08'0 0.0
2014-Oct-26 02:33N 49°00' W 123°08'0 0.1
2014-Oct-26 01:33N 49°00' W 123°08'1110.6
2014-Oct-26 00:33N 48°53' W 123°19'5 4.6
2014-Oct-25 23:33N 48°48' W 123°19'6 5.8
2014-Oct-25 22:33N 48°51' W 123°27'0 0.0
2014-Oct-25 21:33N 48°51' W 123°27'0 0.0
2014-Oct-25 20:33N 48°51' W 123°27'1110.9
2014-Oct-25 19:33N 48°57' W 123°13'2 2.1
2014-Oct-25 18:33N 48°58' W 123°10'10 9.5
2014-Oct-25 17:33N 48°51' W 123°20'2 1.9
2014-Oct-25 16:31N 48°53' W 123°19'1111.1
2014-Oct-25 15:33N 49°00' W 123°08'3 3.2
2014-Oct-25 14:33N 48°58' W 123°10'1212.5
2014-Oct-25 13:33N 48°51' W 123°27'0 0.2
2014-Oct-25 12:33N 48°51' W 123°27'0 0.0
2014-Oct-25 11:33N 48°51' W 123°27'0 0.0
2014-Oct-25 10:33N 48°51' W 123°27'0 0.0
2014-Oct-25 09:33N 48°51' W 123°27'0 0.0
2014-Oct-25 08:33N 48°51' W 123°27'0 0.0
2014-Oct-25 07:33N 48°51' W 123°27'0 0.0
2014-Oct-25 06:33N 48°51' W 123°27'1 0.6
2014-Oct-25 05:27N 48°51' W 123°26'4 4.4
2014-Oct-25 04:33N 48°50' W 123°20'3 2.9
2014-Oct-25 03:34N 48°53' W 123°19'1010.4
2014-Oct-25 02:34N 49°00' W 123°08'0 0.3
2014-Oct-25 01:33N 49°00' W 123°08'1110.7
2014-Oct-25 00:33N 48°53' W 123°19'2 1.8
2014-Oct-24 23:28N 48°51' W 123°20'4 3.7
2014-Oct-24 22:31N 48°50' W 123°25'2 0.7
2014-Oct-24 20:25N 48°51' W 123°27'6 6.8
2014-Oct-24 19:33N 48°48' W 123°19'3 3.2
2014-Oct-24 18:34N 48°51' W 123°21'8 8.2
2014-Oct-24 17:33N 48°57' W 123°13'4 4.4
2014-Oct-24 16:33N 49°00' W 123°08'9 9.3
2014-Oct-24 15:33N 48°53' W 123°17'3 3.1
2014-Oct-24 14:33N 48°51' W 123°20'3 3.4
2014-Oct-24 13:33N 48°49' W 123°24'3 0.3
2014-Oct-24 05:18N 48°51' W 123°26'6 7.4
2014-Oct-24 04:33N 48°48' W 123°19'5 4.7
2014-Oct-24 03:33N 48°53' W 123°19'1010.4
2014-Oct-24 02:33N 48°60' W 123°08'0 0.3
2014-Oct-24 01:34N 49°00' W 123°08'1110.6
2014-Oct-24 00:34N 48°53' W 123°19'2 1.9
2014-Oct-23 23:33N 48°51' W 123°20'4 3.6
2014-Oct-23 22:33N 48°50' W 123°25'4 1.4
2014-Oct-23 19:32N 48°48' W 123°19'3 3.2
2014-Oct-23 18:33N 48°51' W 123°21'8 8.2
2014-Oct-23 17:33N 48°57' W 123°12'5 4.5
2014-Oct-23 16:33N 49°00' W 123°08'1010.2
2014-Oct-23 15:34N 48°53' W 123°18'2 2.2
2014-Oct-23 14:30N 48°51' W 123°20'4 3.9
2014-Oct-23 13:33N 48°50' W 123°25'1 0.1
2014-Oct-23 05:17N 48°51' W 123°26'5 7.5
2014-Oct-23 04:33N 48°48' W 123°19'5 4.8
2014-Oct-23 03:33N 48°53' W 123°19'1010.4
2014-Oct-23 02:34N 49°00' W 123°08'0 0.3
2014-Oct-23 01:33N 49°00' W 123°08'1110.5
2014-Oct-23 00:33N 48°53' W 123°19'2 2.0
2014-Oct-22 23:33N 48°51' W 123°20'4 3.5
2014-Oct-22 22:33N 48°50' W 123°25'4 1.4
2014-Oct-22 19:33N 48°48' W 123°19'3 3.2
2014-Oct-22 18:32N 48°51' W 123°21'7 7.1
2014-Oct-22 17:34N 48°57' W 123°14'6 5.6
2014-Oct-22 16:33N 49°00' W 123°08'1010.1
2014-Oct-22 15:33N 48°53' W 123°18'2 2.2
2014-Oct-22 14:30N 48°51' W 123°20'3 3.5
2014-Oct-22 13:33N 48°49' W 123°24'3 1.4
2014-Oct-22 11:33N 48°51' W 123°27'0 0.0
2014-Oct-22 10:31N 48°51' W 123°27'0 0.0
2014-Oct-22 09:25N 48°51' W 123°27'0 0.0
2014-Oct-22 08:32N 48°51' W 123°27'0 0.0
2014-Oct-22 07:32N 48°51' W 123°27'0 0.0
2014-Oct-22 06:32N 48°51' W 123°27'0 0.0
2014-Oct-22 05:33N 48°51' W 123°27'6 6.1
2014-Oct-22 04:33N 48°48' W 123°19'5 4.5
2014-Oct-22 03:33N 48°53' W 123°19'9 8.7
2014-Oct-22 02:33N 48°59' W 123°10'2 2.0
2014-Oct-22 01:33N 49°00' W 123°08'  
Track history (hours):
 
Tides and Currents Weather Stations Pressure Air Temp Water Temp Dewpoint Dewpoint Depression Visibility Wind Speed Wind Dir Waves Ship Positions

Queen Of Nanaimo

Last reported at 2014-Nov-01 01:33 UTC. Time now 2014-Nov-01 01:42 UTC.
Position N 49°00' W 123°08'.

Length 130 m; draft 4 m.

Type: Ship. MMSI: 316001254.

Date/timePositionNaut miles runAvg speedWind from/ knotsBaromVisibWave heightAir tempDewpointWater temp
2014-Nov-01 01:33N 49°00' W 123°08'1110.6
2014-Nov-01 00:33N 48°53' W 123°19'2 1.9
2014-Oct-31 23:27N 48°51' W 123°20'3 3.3
2014-Oct-31 22:30N 48°50' W 123°25'1 0.3
2014-Oct-31 20:05N 48°51' W 123°26'5 9.2
2014-Oct-31 19:31N 48°48' W 123°19'4 3.6
2014-Oct-31 18:31N 48°52' W 123°19'8 8.8
2014-Oct-31 17:34N 48°58' W 123°11'3 3.0
2014-Oct-31 16:34N 49°00' W 123°08'1010.2
2014-Oct-31 15:33N 48°53' W 123°18'3 3.0
2014-Oct-31 14:26N 48°50' W 123°20'4 0.4
2014-Oct-31 05:24N 48°51' W 123°26'4 5.3
2014-Oct-31 04:34N 48°49' W 123°20'4 4.0
2014-Oct-31 03:33N 48°53' W 123°18'9 9.1
2014-Oct-31 02:33N 48°59' W 123°09'1 1.3
2014-Oct-31 01:33N 49°00' W 123°08'1110.7
2014-Oct-31 00:33N 48°53' W 123°19'2 1.9
2014-Oct-30 23:33N 48°51' W 123°20'4 1.2
2014-Oct-30 20:03N 48°51' W 123°26'510.8
2014-Oct-30 19:33N 48°48' W 123°19'4 3.7
2014-Oct-30 18:31N 48°52' W 123°21'8 8.7
2014-Oct-30 17:33N 48°58' W 123°12'4 4.0
2014-Oct-30 16:33N 49°00' W 123°08'1110.7
2014-Oct-30 15:33N 48°53' W 123°19'3 2.5
2014-Oct-30 14:33N 48°50' W 123°20'3 0.4
2014-Oct-30 05:13N 48°50' W 123°25'5 7.2
2014-Oct-30 04:33N 48°48' W 123°19'5 4.9
2014-Oct-30 03:33N 48°53' W 123°19'1010.3
2014-Oct-30 02:33N 48°60' W 123°08'0 0.3
2014-Oct-30 01:33N 49°00' W 123°08'1110.5
2014-Oct-30 00:33N 48°53' W 123°19'2 1.8
2014-Oct-29 23:27N 48°51' W 123°20'3 3.4
2014-Oct-29 22:32N 48°50' W 123°25'4 1.2
2014-Oct-29 19:33N 48°48' W 123°20'3 2.8
2014-Oct-29 18:33N 48°51' W 123°20'7 7.3
2014-Oct-29 17:33N 48°57' W 123°13'5 5.3
2014-Oct-29 16:33N 49°00' W 123°08'1010.3
2014-Oct-29 15:33N 48°53' W 123°18'2 2.5
2014-Oct-29 14:33N 48°51' W 123°20'3 2.9
2014-Oct-29 13:33N 48°49' W 123°24'3 2.8
2014-Oct-29 12:33N 48°51' W 123°27'0 0.0
2014-Oct-29 11:33N 48°51' W 123°27'0 0.0
2014-Oct-29 10:33N 48°51' W 123°27'0 0.0
2014-Oct-29 09:33N 48°51' W 123°27'0 0.0
2014-Oct-29 08:33N 48°51' W 123°27'0 0.0
2014-Oct-29 07:33N 48°51' W 123°27'0 0.0
2014-Oct-29 06:33N 48°51' W 123°27'0 0.0
2014-Oct-29 05:33N 48°51' W 123°27'6 6.0
2014-Oct-29 04:33N 48°48' W 123°19'4 4.3
2014-Oct-29 03:33N 48°52' W 123°18'9 8.6
2014-Oct-29 02:33N 48°59' W 123°10'2 2.1
2014-Oct-29 01:33N 49°00' W 123°08'1110.6
2014-Oct-29 00:33N 48°53' W 123°19'2 2.0
2014-Oct-28 23:34N 48°51' W 123°20'3 3.5
2014-Oct-28 22:33N 48°49' W 123°24'2 2.2
2014-Oct-28 21:31N 48°51' W 123°27'6 3.0
2014-Oct-28 19:33N 48°48' W 123°19'3 3.1
2014-Oct-28 18:30N 48°51' W 123°21'7 7.8
2014-Oct-28 17:34N 48°57' W 123°14'5 5.2
2014-Oct-28 16:33N 49°00' W 123°08'9 9.4
2014-Oct-28 15:33N 48°53' W 123°17'3 2.9
2014-Oct-28 14:32N 48°51' W 123°20'3 0.3
2014-Oct-28 04:32N 48°48' W 123°19'4 4.0
2014-Oct-28 03:34N 48°52' W 123°19'10 9.5
2014-Oct-28 02:33N 48°59' W 123°10'2 1.6
2014-Oct-28 01:33N 49°00' W 123°08'1110.7
2014-Oct-28 00:33N 48°53' W 123°19'2 1.9
2014-Oct-27 23:32N 48°51' W 123°20'4 3.6
2014-Oct-27 22:31N 48°50' W 123°25'5 1.5
2014-Oct-27 19:32N 48°48' W 123°19'3 3.2
2014-Oct-27 18:33N 48°51' W 123°21'8 7.6
2014-Oct-27 17:34N 48°57' W 123°13'5 5.1
2014-Oct-27 16:33N 49°00' W 123°08'10 9.7
2014-Oct-27 15:33N 48°53' W 123°17'3 2.7
2014-Oct-27 14:33N 48°51' W 123°20'4 3.3
2014-Oct-27 13:26N 48°50' W 123°25'4 0.5
2014-Oct-27 05:34N 48°52' W 123°19'1111.4
2014-Oct-27 04:33N 49°00' W 123°08'1211.5
2014-Oct-27 03:34N 48°51' W 123°19'0 0.3
2014-Oct-27 02:34N 48°52' W 123°19'1111.2
2014-Oct-27 01:33N 49°00' W 123°08'7 6.6
2014-Oct-27 00:33N 48°55' W 123°14'6 6.1
2014-Oct-26 23:33N 48°51' W 123°21'3 1.1
2014-Oct-26 20:33N 48°48' W 123°19'3 2.9
2014-Oct-26 19:33N 48°51' W 123°20'7 7.0
2014-Oct-26 18:33N 48°56' W 123°14'6 5.7
2014-Oct-26 17:34N 49°00' W 123°08'10 9.8
2014-Oct-26 16:34N 48°53' W 123°17'3 2.6
2014-Oct-26 15:34N 48°51' W 123°20'3 3.4
2014-Oct-26 14:34N 48°49' W 123°24'3 3.1
2014-Oct-26 13:34N 48°51' W 123°27'0 0.0
2014-Oct-26 12:34N 48°51' W 123°27'0 0.0
2014-Oct-26 11:33N 48°51' W 123°27'0 0.0
2014-Oct-26 10:34N 48°51' W 123°27'0 0.0
2014-Oct-26 09:33N 48°51' W 123°27'0 0.0
2014-Oct-26 08:33N 48°51' W 123°27'0 0.0
2014-Oct-26 07:34N 48°51' W 123°27'0 0.0
2014-Oct-26 06:34N 48°51' W 123°27'4 4.2
2014-Oct-26 05:33N 48°51' W 123°20'3 3.2
2014-Oct-26 04:33N 48°53' W 123°17'9 9.5
2014-Oct-26 03:33N 49°00' W 123°08'0 0.0
2014-Oct-26 02:33N 49°00' W 123°08'0 0.1
2014-Oct-26 01:33N 49°00' W 123°08'1110.6
2014-Oct-26 00:33N 48°53' W 123°19'5 4.6
2014-Oct-25 23:33N 48°48' W 123°19'6 5.8
2014-Oct-25 22:33N 48°51' W 123°27'0 0.0
2014-Oct-25 21:33N 48°51' W 123°27'0 0.0
2014-Oct-25 20:33N 48°51' W 123°27'1110.9
2014-Oct-25 19:33N 48°57' W 123°13'2 2.1
2014-Oct-25 18:33N 48°58' W 123°10'10 9.5
2014-Oct-25 17:33N 48°51' W 123°20'2 1.9
2014-Oct-25 16:31N 48°53' W 123°19'1111.1
2014-Oct-25 15:33N 49°00' W 123°08'3 3.2
2014-Oct-25 14:33N 48°58' W 123°10'1212.5
2014-Oct-25 13:33N 48°51' W 123°27'0 0.2
2014-Oct-25 12:33N 48°51' W 123°27'0 0.0
2014-Oct-25 11:33N 48°51' W 123°27'0 0.0
2014-Oct-25 10:33N 48°51' W 123°27'0 0.0
2014-Oct-25 09:33N 48°51' W 123°27'0 0.0
2014-Oct-25 08:33N 48°51' W 123°27'0 0.0
2014-Oct-25 07:33N 48°51' W 123°27'0 0.0
2014-Oct-25 06:33N 48°51' W 123°27'1 0.6
2014-Oct-25 05:27N 48°51' W 123°26'4 4.4
2014-Oct-25 04:33N 48°50' W 123°20'3 2.9
2014-Oct-25 03:34N 48°53' W 123°19'1010.4
2014-Oct-25 02:34N 49°00' W 123°08'0 0.3
2014-Oct-25 01:33N 49°00' W 123°08'1110.7
2014-Oct-25 00:33N 48°53' W 123°19'2 1.8
2014-Oct-24 23:28N 48°51' W 123°20'4 3.7
2014-Oct-24 22:31N 48°50' W 123°25'2 0.7
2014-Oct-24 20:25N 48°51' W 123°27'6 6.8
2014-Oct-24 19:33N 48°48' W 123°19'3 3.2
2014-Oct-24 18:34N 48°51' W 123°21'8 8.2
2014-Oct-24 17:33N 48°57' W 123°13'4 4.4
2014-Oct-24 16:33N 49°00' W 123°08'9 9.3
2014-Oct-24 15:33N 48°53' W 123°17'3 3.1
2014-Oct-24 14:33N 48°51' W 123°20'3 3.4
2014-Oct-24 13:33N 48°49' W 123°24'3 0.3
2014-Oct-24 05:18N 48°51' W 123°26'6 7.4
2014-Oct-24 04:33N 48°48' W 123°19'5 4.7
2014-Oct-24 03:33N 48°53' W 123°19'1010.4
2014-Oct-24 02:33N 48°60' W 123°08'0 0.3
2014-Oct-24 01:34N 49°00' W 123°08'1110.6
2014-Oct-24 00:34N 48°53' W 123°19'2 1.9
2014-Oct-23 23:33N 48°51' W 123°20'4 3.6
2014-Oct-23 22:33N 48°50' W 123°25'4 1.4
2014-Oct-23 19:32N 48°48' W 123°19'3 3.2
2014-Oct-23 18:33N 48°51' W 123°21'8 8.2
2014-Oct-23 17:33N 48°57' W 123°12'5 4.5
2014-Oct-23 16:33N 49°00' W 123°08'1010.2
2014-Oct-23 15:34N 48°53' W 123°18'2 2.2
2014-Oct-23 14:30N 48°51' W 123°20'4 3.9
2014-Oct-23 13:33N 48°50' W 123°25'1 0.1
2014-Oct-23 05:17N 48°51' W 123°26'5 7.5
2014-Oct-23 04:33N 48°48' W 123°19'5 4.8
2014-Oct-23 03:33N 48°53' W 123°19'1010.4
2014-Oct-23 02:34N 49°00' W 123°08'0 0.3
2014-Oct-23 01:33N 49°00' W 123°08'1110.5
2014-Oct-23 00:33N 48°53' W 123°19'2 2.0
2014-Oct-22 23:33N 48°51' W 123°20'4 3.5
2014-Oct-22 22:33N 48°50' W 123°25'4 1.4
2014-Oct-22 19:33N 48°48' W 123°19'3 3.2
2014-Oct-22 18:32N 48°51' W 123°21'7 7.1
2014-Oct-22 17:34N 48°57' W 123°14'6 5.6
2014-Oct-22 16:33N 49°00' W 123°08'1010.1
2014-Oct-22 15:33N 48°53' W 123°18'2 2.2
2014-Oct-22 14:30N 48°51' W 123°20'3 3.5
2014-Oct-22 13:33N 48°49' W 123°24'3 1.4
2014-Oct-22 11:33N 48°51' W 123°27'0 0.0
2014-Oct-22 10:31N 48°51' W 123°27'0 0.0
2014-Oct-22 09:25N 48°51' W 123°27'0 0.0
2014-Oct-22 08:32N 48°51' W 123°27'0 0.0
2014-Oct-22 07:32N 48°51' W 123°27'0 0.0
2014-Oct-22 06:32N 48°51' W 123°27'0 0.0
2014-Oct-22 05:33N 48°51' W 123°27'6 6.1
2014-Oct-22 04:33N 48°48' W 123°19'5 4.5
2014-Oct-22 03:33N 48°53' W 123°19'9 8.7
2014-Oct-22 02:33N 48°59' W 123°10'2 2.0
2014-Oct-22 01:33N 49°00' W 123°08'  

Dump ship's entire track history